Time;durP1;ratioP1;P1;durP2;ratioP2;P2;SDS_P1;SDS_P2;PMS_P1;PMS_P2;Temp;Humidity;BMP_temperature;BMP_pressure;BME280_temperature;BME280_humidity;BME280_pressure;Samples;Min_cycle;Max_cycle;Signal;HPM_P1;HPM_P2
2023/07/21 00:02:14;;;;;;;3.67;2.80;;;;;;;;;;13043355;22;20391;-81
2023/07/21 00:07:19;;;;;;;6.18;3.15;;;;;;;;;;13044131;22;20391;-81
2023/07/21 00:12:21;;;;;;;4.32;3.10;;;;;;;;;;13042731;22;20403;-81
2023/07/21 00:17:24;;;;;;;5.43;2.92;;;;;;;;;;13044035;22;20368;-81
2023/07/21 00:22:28;;;;;;;4.80;3.10;;;;;;;;;;13043175;22;20694;-81
2023/07/21 00:27:30;;;;;;;4.55;3.05;;;;;;;;;;13043015;22;20357;-81
2023/07/21 00:32:33;;;;;;;4.05;2.72;;;;;;;;;;13042893;22;20381;-81
2023/07/21 00:37:37;;;;;;;4.87;3.40;;;;;;;;;;13043813;22;20845;-81
2023/07/21 00:42:40;;;;;;;5.07;2.72;;;;;;;;;;13042247;22;20357;-81
2023/07/21 00:47:43;;;;;;;4.75;3.00;;;;;;;;;;13035967;22;20694;-81
2023/07/21 00:52:46;;;;;;;6.27;3.20;;;;;;;;;;12789686;23;20384;-81
2023/07/21 00:57:49;;;;;;;5.43;3.10;;;;;;;;;;12791006;23;20368;-81
2023/07/21 01:02:51;;;;;;;4.75;2.70;;;;;;;;;;12791777;23;20609;-81
2023/07/21 01:07:55;;;;;;;6.03;2.75;;;;;;;;;;12791042;23;20434;-81
2023/07/21 01:12:58;;;;;;;5.47;2.70;;;;;;;;;;12791570;23;20720;-80
2023/07/21 01:18:01;;;;;;;6.15;2.90;;;;;;;;;;12791150;23;20438;-80
2023/07/21 01:23:10;;;;;;;3.47;2.60;;;;;;;;;;12791339;23;20438;-80
2023/07/21 01:28:15;;;;;;;6.32;2.78;;;;;;;;;;12791789;23;20437;-81
2023/07/21 01:33:18;;;;;;;4.22;2.80;;;;;;;;;;12791834;23;20359;-80
2023/07/21 01:38:22;;;;;;;5.90;2.70;;;;;;;;;;12790504;23;20402;-80
2023/07/21 01:43:26;;;;;;;5.93;3.05;;;;;;;;;;12788117;23;20371;-81
2023/07/21 01:48:28;;;;;;;5.53;2.90;;;;;;;;;;12784059;23;20415;-81
2023/07/21 01:53:34;;;;;;;4.43;3.05;;;;;;;;;;12786411;23;20450;-81
2023/07/21 01:58:39;;;;;;;5.53;3.13;;;;;;;;;;12785216;23;20372;-81
2023/07/21 02:03:45;;;;;;;6.43;3.23;;;;;;;;;;12789021;23;20375;-81
2023/07/21 02:08:47;;;;;;;5.28;3.30;;;;;;;;;;12794298;23;20383;-81
2023/07/21 02:13:51;;;;;;;6.13;3.20;;;;;;;;;;12791137;23;20371;-81
2023/07/21 02:18:54;;;;;;;4.60;2.80;;;;;;;;;;12793505;23;20922;-80
2023/07/21 02:23:57;;;;;;;5.38;2.95;;;;;;;;;;12794523;23;20494;-80
2023/07/21 02:29:00;;;;;;;4.25;2.90;;;;;;;;;;12794583;23;20708;-81
2023/07/21 02:34:05;;;;;;;4.23;2.80;;;;;;;;;;12792712;23;20364;-80
2023/07/21 02:39:07;;;;;;;4.20;2.80;;;;;;;;;;12792256;23;20356;-80
2023/07/21 02:44:11;;;;;;;5.50;3.27;;;;;;;;;;12792228;23;20368;-81
2023/07/21 02:49:13;;;;;;;4.72;2.70;;;;;;;;;;12790667;23;20387;-80
2023/07/21 02:54:16;;;;;;;3.65;2.65;;;;;;;;;;12790864;23;20851;-81
2023/07/21 02:59:23;;;;;;;4.07;2.92;;;;;;;;;;12791299;23;20426;-80
2023/07/21 03:04:27;;;;;;;4.82;2.70;;;;;;;;;;12790571;23;20372;-80
2023/07/21 03:09:29;;;;;;;2.88;2.45;;;;;;;;;;12790597;23;20399;-81
2023/07/21 03:14:33;;;;;;;4.20;2.75;;;;;;;;;;12791627;23;20363;-81
2023/07/21 03:19:35;;;;;;;3.00;2.50;;;;;;;;;;12790062;23;20700;-81
2023/07/21 03:24:39;;;;;;;4.53;2.70;;;;;;;;;;12791552;23;20737;-80
2023/07/21 03:29:43;;;;;;;3.87;2.73;;;;;;;;;;12791017;23;20422;-81
2023/07/21 03:34:49;;;;;;;3.97;2.60;;;;;;;;;;12790826;23;20360;-80
2023/07/21 03:39:51;;;;;;;6.38;3.05;;;;;;;;;;12789936;23;20367;-81
2023/07/21 03:44:55;;;;;;;5.07;2.77;;;;;;;;;;12790048;23;20847;-81
2023/07/21 03:49:58;;;;;;;4.50;2.67;;;;;;;;;;12789429;23;20388;-81
2023/07/21 03:55:00;;;;;;;4.13;2.80;;;;;;;;;;12790556;23;20426;-80
2023/07/21 04:00:06;;;;;;;4.53;2.65;;;;;;;;;;12789854;23;20847;-81
2023/07/21 04:05:09;;;;;;;3.05;2.70;;;;;;;;;;12789995;23;20414;-81
2023/07/21 04:10:12;;;;;;;3.40;2.70;;;;;;;;;;12789711;23;20415;-80
2023/07/21 04:15:16;;;;;;;3.42;2.65;;;;;;;;;;12790151;23;20665;-81
2023/07/21 04:20:18;;;;;;;3.85;2.50;;;;;;;;;;12792670;23;20372;-81
2023/07/21 04:25:21;;;;;;;3.85;2.70;;;;;;;;;;12789525;23;20368;-80
2023/07/21 04:30:24;;;;;;;3.33;2.50;;;;;;;;;;12790304;23;20388;-80
2023/07/21 04:35:27;;;;;;;3.15;2.40;;;;;;;;;;12788308;23;20405;-80
2023/07/21 04:40:29;;;;;;;4.15;2.20;;;;;;;;;;12787460;23;20368;-80
2023/07/21 04:45:35;;;;;;;5.45;2.40;;;;;;;;;;12788660;23;20910;-81
2023/07/21 04:50:37;;;;;;;4.15;2.55;;;;;;;;;;12788875;23;20383;-83
2023/07/21 04:55:39;;;;;;;4.53;2.20;;;;;;;;;;12789977;23;20375;-83
2023/07/21 05:00:43;;;;;;;2.70;2.20;;;;;;;;;;12789035;23;20595;-82
2023/07/21 05:05:46;;;;;;;4.03;2.50;;;;;;;;;;12790425;23;20445;-81
2023/07/21 05:10:48;;;;;;;3.80;2.43;;;;;;;;;;12791531;23;20391;-81
2023/07/21 05:15:52;;;;;;;3.53;2.27;;;;;;;;;;12790304;23;20748;-82
2023/07/21 05:20:54;;;;;;;4.05;2.33;;;;;;;;;;12791157;23;20368;-81
2023/07/21 05:26:00;;;;;;;5.22;2.50;;;;;;;;;;12789627;23;20376;-82
2023/07/21 05:31:04;;;;;;;4.13;2.43;;;;;;;;;;12790706;23;20705;-81
2023/07/21 05:36:09;;;;;;;3.78;2.65;;;;;;;;;;12789988;23;20434;-82
2023/07/21 05:41:12;;;;;;;3.88;2.10;;;;;;;;;;12790641;23;20359;-81
2023/07/21 05:46:15;;;;;;;4.10;2.38;;;;;;;;;;12794630;23;20417;-81
2023/07/21 05:51:18;;;;;;;4.55;2.60;;;;;;;;;;12793368;23;20983;-82
2023/07/21 05:56:20;;;;;;;5.03;2.30;;;;;;;;;;12793655;23;20375;-82
2023/07/21 06:01:24;;;;;;;3.88;2.20;;;;;;;;;;12794168;23;20368;-82
2023/07/21 06:06:26;;;;;;;3.20;2.42;;;;;;;;;;12793504;23;20759;-81
2023/07/21 06:11:28;;;;;;;5.80;2.53;;;;;;;;;;12794173;23;20453;-81
2023/07/21 06:16:32;;;;;;;4.32;2.17;;;;;;;;;;12786992;23;20399;-91
2023/07/21 06:21:35;;;;;;;3.53;2.40;;;;;;;;;;12787623;23;20375;-89
2023/07/21 06:26:38;;;;;;;4.28;2.20;;;;;;;;;;12785631;23;20452;-81
2023/07/21 06:31:41;;;;;;;3.63;1.77;;;;;;;;;;12785134;23;20855;-81
2023/07/21 06:36:44;;;;;;;3.70;2.38;;;;;;;;;;12785460;23;20371;-81
2023/07/21 06:41:46;;;;;;;3.25;2.13;;;;;;;;;;12784322;23;20368;-81
2023/07/21 06:46:51;;;;;;;4.05;1.95;;;;;;;;;;12787067;23;20368;-81
2023/07/21 06:51:53;;;;;;;3.80;2.30;;;;;;;;;;12791948;23;20771;-80
2023/07/21 06:56:56;;;;;;;3.57;2.20;;;;;;;;;;12792615;23;20482;-81
2023/07/21 07:02:00;;;;;;;3.17;2.10;;;;;;;;;;12791952;23;20848;-81
2023/07/21 07:07:04;;;;;;;2.60;2.10;;;;;;;;;;12791740;23;20371;-80
2023/07/21 07:12:09;;;;;;;4.25;2.50;;;;;;;;;;12792360;23;20384;-81
2023/07/21 07:17:13;;;;;;;3.10;2.20;;;;;;;;;;12791650;23;20403;-80
2023/07/21 07:22:15;;;;;;;3.93;2.10;;;;;;;;;;12792363;23;20368;-81
2023/07/21 07:27:18;;;;;;;3.63;2.17;;;;;;;;;;12781335;23;20438;-83
2023/07/21 07:32:21;;;;;;;4.90;2.70;;;;;;;;;;12789587;23;20754;-83
2023/07/21 07:37:24;;;;;;;4.60;2.40;;;;;;;;;;12792723;23;21003;-83
2023/07/21 07:42:27;;;;;;;2.97;2.00;;;;;;;;;;12790815;23;20418;-83
2023/07/21 07:47:31;;;;;;;3.55;2.40;;;;;;;;;;12790737;23;20895;-83
2023/07/21 07:52:33;;;;;;;2.80;2.23;;;;;;;;;;12788885;23;20422;-83
2023/07/21 07:57:36;;;;;;;3.63;2.43;;;;;;;;;;12790333;23;20429;-83
2023/07/21 08:02:40;;;;;;;3.95;2.20;;;;;;;;;;12790517;23;20434;-83
2023/07/21 08:07:42;;;;;;;3.58;2.58;;;;;;;;;;12788953;23;20950;-83
2023/07/21 08:12:44;;;;;;;4.07;2.63;;;;;;;;;;12788739;23;20489;-83
2023/07/21 08:17:48;;;;;;;3.57;2.30;;;;;;;;;;12788741;23;20367;-83
2023/07/21 08:22:51;;;;;;;3.72;2.38;;;;;;;;;;12790256;23;20368;-82
2023/07/21 08:27:53;;;;;;;4.97;2.27;;;;;;;;;;12788766;23;20441;-83
2023/07/21 08:32:58;;;;;;;2.47;1.90;;;;;;;;;;12788544;23;20379;-83
2023/07/21 08:38:00;;;;;;;3.33;2.22;;;;;;;;;;12788300;23;20728;-82
2023/07/21 08:43:04;;;;;;;4.25;2.50;;;;;;;;;;12788930;23;20439;-82
2023/07/21 08:48:08;;;;;;;3.22;2.33;;;;;;;;;;12788516;23;20449;-82
2023/07/21 08:53:10;;;;;;;4.60;2.40;;;;;;;;;;12787858;23;20926;-82
2023/07/21 08:58:13;;;;;;;3.97;2.50;;;;;;;;;;12789255;23;20372;-82
2023/07/21 09:03:23;;;;;;;2.92;2.45;;;;;;;;;;12788855;23;20372;-81
2023/07/21 09:08:28;;;;;;;4.90;2.30;;;;;;;;;;12794350;23;20375;-82
2023/07/21 09:13:31;;;;;;;4.90;2.40;;;;;;;;;;12784156;23;20387;-82
2023/07/21 09:18:36;;;;;;;4.20;2.47;;;;;;;;;;12783127;23;20855;-81
2023/07/21 09:23:39;;;;;;;5.25;2.45;;;;;;;;;;12785174;23;20372;-80
2023/07/21 09:28:43;;;;;;;5.45;2.50;;;;;;;;;;12789536;23;20438;-81
2023/07/21 09:33:47;;;;;;;2.53;2.33;;;;;;;;;;12788586;23;20470;-81
2023/07/21 09:38:51;;;;;;;3.38;2.25;;;;;;;;;;12787243;23;20363;-81
2023/07/21 09:43:55;;;;;;;3.65;2.60;;;;;;;;;;12787397;23;20391;-81
2023/07/21 09:48:59;;;;;;;5.40;2.43;;;;;;;;;;12786445;23;20375;-81
2023/07/21 09:54:05;;;;;;;4.70;2.60;;;;;;;;;;12786103;23;20379;-81
2023/07/21 09:59:08;;;;;;;4.38;2.40;;;;;;;;;;12786788;23;20422;-81
2023/07/21 10:04:13;;;;;;;3.80;2.55;;;;;;;;;;12786899;23;20371;-79
2023/07/21 10:09:16;;;;;;;5.55;2.97;;;;;;;;;;12787250;23;20356;-81
2023/07/21 10:14:33;;;;;;;3.60;2.60;;;;;;;;;;12788324;23;20395;-81
2023/07/21 10:19:44;;;;;;;4.17;2.37;;;;;;;;;;12788187;23;20418;-82
2023/07/21 10:24:51;;;;;;;4.50;2.57;;;;;;;;;;12787128;23;20629;-82
2023/07/21 10:29:56;;;;;;;3.75;2.78;;;;;;;;;;12791364;23;20917;-82
2023/07/21 10:34:59;;;;;;;4.32;2.60;;;;;;;;;;12791529;23;20387;-81
2023/07/21 10:40:08;;;;;;;4.30;2.90;;;;;;;;;;12792842;23;20840;-81
2023/07/21 10:45:13;;;;;;;5.37;3.00;;;;;;;;;;12791933;23;20423;-80
2023/07/21 10:50:17;;;;;;;5.50;2.70;;;;;;;;;;12792230;23;20379;-81
2023/07/21 10:55:19;;;;;;;3.67;2.55;;;;;;;;;;12793120;23;20462;-81
2023/07/21 11:00:22;;;;;;;5.90;2.70;;;;;;;;;;12783723;23;20371;-81
2023/07/21 11:05:26;;;;;;;4.43;2.80;;;;;;;;;;12783165;23;20458;-79
2023/07/21 11:10:33;;;;;;;4.90;3.00;;;;;;;;;;12773350;23;21388;-79
2023/07/21 11:15:36;;;;;;;5.93;3.60;;;;;;;;;;12730132;23;20426;-82
2023/07/21 11:20:40;;;;;;;5.60;2.22;;;;;;;;;;12754988;23;20466;-81
2023/07/21 11:25:42;;;;;;;10.63;3.30;;;;;;;;;;12757119;23;20461;-82
2023/07/21 11:30:49;;;;;;;4.38;2.40;;;;;;;;;;12768597;23;20375;-89
2023/07/21 11:35:53;;;;;;;6.72;3.20;;;;;;;;;;12762375;23;20391;-87
2023/07/21 11:40:55;;;;;;;6.95;3.53;;;;;;;;;;12770199;23;20438;-89
2023/07/21 11:45:59;;;;;;;6.33;3.30;;;;;;;;;;12779447;23;20375;-90
2023/07/21 11:51:05;;;;;;;7.50;3.13;;;;;;;;;;12787905;23;20376;-90
2023/07/21 14:13:09;;;;;;;2.20;1.60;;;;;;;;;;12919646;23;20454;-92
2023/07/21 14:18:12;;;;;;;1.58;1.02;;;;;;;;;;12920174;23;20701;-93
2023/07/21 14:23:15;;;;;;;1.20;0.98;;;;;;;;;;12923892;23;20519;-92
2023/07/21 14:28:19;;;;;;;2.10;1.00;;;;;;;;;;12922873;23;20364;-92
2023/07/21 14:33:21;;;;;;;2.00;1.08;;;;;;;;;;12945422;23;20380;-92
2023/07/21 14:38:24;;;;;;;1.57;1.10;;;;;;;;;;12924175;23;20453;-92
2023/07/21 14:43:28;;;;;;;2.13;1.10;;;;;;;;;;12927649;23;20364;-90
2023/07/21 14:48:31;;;;;;;1.30;1.20;;;;;;;;;;12922917;23;20364;-92
2023/07/21 14:53:34;;;;;;;2.37;1.10;;;;;;;;;;12946454;23;20372;-92
2023/07/21 14:58:38;;;;;;;1.50;1.30;;;;;;;;;;12932537;23;20365;-92
2023/07/21 15:03:40;;;;;;;1.65;1.20;;;;;;;;;;12943884;23;20370;-92
2023/07/21 15:08:43;;;;;;;2.10;1.10;;;;;;;;;;12922403;23;20502;-87
2023/07/21 15:13:47;;;;;;;3.80;1.50;;;;;;;;;;12912464;23;20384;-92
2023/07/21 15:18:49;;;;;;;2.33;1.10;;;;;;;;;;12926207;23;20372;-93
2023/07/21 15:23:52;;;;;;;1.35;1.10;;;;;;;;;;12916917;23;20438;-93
2023/07/21 15:28:56;;;;;;;2.78;0.80;;;;;;;;;;12916396;23;20407;-92
2023/07/21 15:33:58;;;;;;;2.17;1.25;;;;;;;;;;12902668;23;20392;-92
2023/07/21 15:39:04;;;;;;;1.70;0.90;;;;;;;;;;12911063;23;20380;-93
2023/07/21 15:44:07;;;;;;;1.10;0.70;;;;;;;;;;12927144;23;20368;-93
2023/07/21 15:49:10;;;;;;;1.95;0.90;;;;;;;;;;12908004;23;20365;-93
2023/07/21 15:54:12;;;;;;;1.25;0.98;;;;;;;;;;12910774;23;20392;-93
2023/07/21 15:59:16;;;;;;;0.85;0.70;;;;;;;;;;12910363;23;20434;-93
2023/07/21 16:04:20;;;;;;;2.03;0.87;;;;;;;;;;12906041;23;20376;-93
2023/07/21 16:09:22;;;;;;;1.77;0.77;;;;;;;;;;12906649;23;20384;-93
2023/07/21 16:14:26;;;;;;;2.50;0.82;;;;;;;;;;12910786;23;20387;-93
2023/07/21 16:19:29;;;;;;;1.50;0.87;;;;;;;;;;12909867;23;20376;-93
2023/07/21 16:24:31;;;;;;;1.03;0.93;;;;;;;;;;12899571;23;20859;-93
2023/07/21 16:29:36;;;;;;;1.80;0.80;;;;;;;;;;12907674;23;20376;-93
2023/07/21 16:34:39;;;;;;;1.42;0.90;;;;;;;;;;12916364;23;20388;-93
2023/07/21 16:39:43;;;;;;;1.97;1.10;;;;;;;;;;12925271;23;20368;-93
2023/07/21 16:44:47;;;;;;;1.70;1.00;;;;;;;;;;12901542;23;20384;-93
2023/07/21 16:49:49;;;;;;;2.10;1.10;;;;;;;;;;12916184;23;20372;-93
2023/07/21 16:54:52;;;;;;;1.23;0.80;;;;;;;;;;12909159;23;20450;-94
2023/07/21 16:59:56;;;;;;;1.37;0.80;;;;;;;;;;12906274;23;20380;-92
2023/07/21 17:04:58;;;;;;;1.23;0.70;;;;;;;;;;12912115;23;20376;-93
2023/07/21 17:10:01;;;;;;;1.38;0.70;;;;;;;;;;12906649;23;20376;-93
2023/07/21 17:15:08;;;;;;;3.53;1.20;;;;;;;;;;12920863;23;20414;-92
2023/07/21 17:20:12;;;;;;;1.00;0.70;;;;;;;;;;12915480;23;20406;-92
2023/07/21 17:25:14;;;;;;;2.00;0.90;;;;;;;;;;12914427;23;20450;-93
2023/07/21 17:30:19;;;;;;;1.67;0.75;;;;;;;;;;12905555;23;20379;-90
2023/07/21 17:35:21;;;;;;;1.77;0.83;;;;;;;;;;12914268;23;20392;-92
2023/07/21 17:40:24;;;;;;;1.98;0.90;;;;;;;;;;12913252;23;20376;-93
2023/07/21 17:45:28;;;;;;;1.20;0.80;;;;;;;;;;12933763;23;20368;-93
2023/07/21 17:50:30;;;;;;;1.77;1.20;;;;;;;;;;12900817;23;20368;-94
2023/07/21 17:55:32;;;;;;;1.03;0.53;;;;;;;;;;12890839;23;20446;-93
2023/07/21 18:00:39;;;;;;;2.00;0.85;;;;;;;;;;12904295;23;20372;-93
2023/07/21 18:05:42;;;;;;;0.93;0.70;;;;;;;;;;12952429;23;20394;-92
2023/07/21 18:10:44;;;;;;;1.60;1.00;;;;;;;;;;12929764;23;20406;-93
2023/07/21 18:15:48;;;;;;;2.00;0.90;;;;;;;;;;12914949;23;20837;-93
2023/07/21 18:21:02;;;;;;;2.57;1.00;;;;;;;;;;12909805;23;20384;-94
2023/07/21 18:26:05;;;;;;;1.50;0.80;;;;;;;;;;12924147;23;20380;-93
2023/07/21 18:31:09;;;;;;;2.50;0.97;;;;;;;;;;12907651;23;20377;-94
2023/07/21 18:36:12;;;;;;;2.23;0.83;;;;;;;;;;12917855;23;20380;-94
2023/07/21 18:41:18;;;;;;;2.50;0.90;;;;;;;;;;12917842;23;20678;-94
2023/07/21 18:46:22;;;;;;;1.30;0.88;;;;;;;;;;12917451;23;20439;-93
2023/07/21 18:51:25;;;;;;;1.30;0.93;;;;;;;;;;12920691;23;20376;-94
2023/07/21 18:56:27;;;;;;;1.95;0.93;;;;;;;;;;12922203;23;20446;-94
2023/07/21 19:01:33;;;;;;;3.63;1.33;;;;;;;;;;12920945;23;20824;-93
2023/07/21 19:06:36;;;;;;;1.67;1.40;;;;;;;;;;12921048;23;20373;-92
2023/07/21 19:11:38;;;;;;;1.87;1.40;;;;;;;;;;12927161;23;20739;-94
2023/07/21 19:16:42;;;;;;;1.90;1.20;;;;;;;;;;12945901;23;20380;-93
2023/07/21 19:21:44;;;;;;;2.13;1.30;;;;;;;;;;12920924;23;20474;-94
2023/07/21 19:26:47;;;;;;;2.37;1.83;;;;;;;;;;12922118;23;20696;-94
2023/07/21 19:31:52;;;;;;;4.50;3.10;;;;;;;;;;12918888;23;20828;-92
2023/07/21 19:36:54;;;;;;;6.27;4.37;;;;;;;;;;12922168;23;20950;-93
2023/07/21 19:41:57;;;;;;;3.47;2.45;;;;;;;;;;12917025;23;20365;-93
2023/07/21 19:47:01;;;;;;;4.28;2.03;;;;;;;;;;12926425;23;20439;-93
2023/07/21 19:52:04;;;;;;;3.50;1.70;;;;;;;;;;12917999;23;20376;-93
2023/07/21 19:57:07;;;;;;;3.70;1.70;;;;;;;;;;12916158;23;20388;-92
2023/07/21 20:02:11;;;;;;;2.70;1.75;;;;;;;;;;12893699;23;20369;-95
2023/07/21 20:07:13;;;;;;;2.83;1.90;;;;;;;;;;12917347;23;20376;-95
2023/07/21 20:12:17;;;;;;;2.40;1.83;;;;;;;;;;12917577;23;20416;-94
2023/07/21 20:17:21;;;;;;;3.00;2.17;;;;;;;;;;12918610;23;20411;-95
2023/07/21 20:22:23;;;;;;;3.58;2.00;;;;;;;;;;12929842;23;20907;-94
2023/07/21 20:27:26;;;;;;;2.60;1.80;;;;;;;;;;12915168;23;20458;-95
2023/07/21 20:32:30;;;;;;;3.72;2.03;;;;;;;;;;12911482;23;20442;-96
2023/07/21 20:37:33;;;;;;;4.53;2.45;;;;;;;;;;12907143;23;20384;-96
2023/07/21 20:42:35;;;;;;;3.83;2.37;;;;;;;;;;12915154;23;20426;-95
2023/07/21 20:47:39;;;;;;;3.05;2.38;;;;;;;;;;12927705;23;20368;-94
2023/07/21 20:52:42;;;;;;;2.90;2.17;;;;;;;;;;12917552;23;20709;-95
2023/07/21 20:57:44;;;;;;;4.50;2.13;;;;;;;;;;12908408;23;20462;-95
2023/07/21 21:02:48;;;;;;;2.67;2.08;;;;;;;;;;12915846;23;20407;-95
2023/07/21 21:07:51;;;;;;;3.53;2.30;;;;;;;;;;12916147;23;20422;-94
2023/07/21 21:12:53;;;;;;;3.80;2.25;;;;;;;;;;12908339;23;20443;-95
2023/07/21 21:17:57;;;;;;;2.47;1.85;;;;;;;;;;12910298;23;20760;-95
2023/07/21 21:22:59;;;;;;;4.50;2.42;;;;;;;;;;12922180;23;20380;-94
2023/07/21 21:28:02;;;;;;;4.45;2.50;;;;;;;;;;12918463;23;20449;-94
2023/07/21 21:33:06;;;;;;;3.40;2.17;;;;;;;;;;12903763;23;20376;-95
2023/07/21 21:38:08;;;;;;;3.63;2.43;;;;;;;;;;12905564;23;20416;-95
2023/07/21 21:43:11;;;;;;;5.80;2.30;;;;;;;;;;12905890;23;20399;-95
2023/07/21 21:48:15;;;;;;;3.70;2.60;;;;;;;;;;12905839;23;20380;-95
2023/07/21 21:53:18;;;;;;;4.43;2.70;;;;;;;;;;12913981;23;20840;-94
2023/07/21 21:58:20;;;;;;;3.13;2.22;;;;;;;;;;12919533;23;20388;-94
2023/07/21 22:03:24;;;;;;;3.60;2.60;;;;;;;;;;12908453;23;20369;-94
2023/07/21 22:08:27;;;;;;;4.00;2.70;;;;;;;;;;12901795;23;20427;-94
2023/07/21 22:13:30;;;;;;;3.73;2.77;;;;;;;;;;12928297;23;20368;-92
2023/07/21 22:18:34;;;;;;;4.88;2.72;;;;;;;;;;12930996;23;20377;-93
2023/07/21 22:23:37;;;;;;;3.75;2.42;;;;;;;;;;12949938;23;20400;-92
2023/07/21 22:28:39;;;;;;;4.28;2.30;;;;;;;;;;12929053;23;20431;-93
2023/07/21 22:33:44;;;;;;;3.72;2.40;;;;;;;;;;12921900;23;20442;-93
2023/07/21 22:38:46;;;;;;;4.03;2.38;;;;;;;;;;12921418;23;20747;-93
2023/07/21 22:43:49;;;;;;;2.65;2.10;;;;;;;;;;12924350;23;20845;-93
2023/07/21 22:48:53;;;;;;;3.30;2.10;;;;;;;;;;12929178;23;20364;-92
2023/07/21 22:53:55;;;;;;;2.22;1.70;;;;;;;;;;12928534;23;20364;-93
2023/07/21 22:58:58;;;;;;;3.15;1.60;;;;;;;;;;12916986;23;20399;-94
2023/07/21 23:04:02;;;;;;;2.65;1.52;;;;;;;;;;12919330;23;20391;-93
2023/07/21 23:09:04;;;;;;;2.35;1.58;;;;;;;;;;12905405;23;20527;-93
2023/07/21 23:14:06;;;;;;;3.60;2.07;;;;;;;;;;12904148;23;20406;-93
2023/07/21 23:19:10;;;;;;;3.72;2.58;;;;;;;;;;12904827;23;20844;-92
2023/07/21 23:24:14;;;;;;;5.78;2.70;;;;;;;;;;12904418;23;20601;-93
2023/07/21 23:29:18;;;;;;;3.97;2.70;;;;;;;;;;12904339;23;20368;-92
2023/07/21 23:34:21;;;;;;;4.05;2.70;;;;;;;;;;12907126;23;20442;-93
2023/07/21 23:39:24;;;;;;;3.78;2.20;;;;;;;;;;12923431;23;20368;-93
2023/07/21 23:44:27;;;;;;;3.07;2.40;;;;;;;;;;12905741;23;20670;-93
2023/07/21 23:49:31;;;;;;;4.40;2.27;;;;;;;;;;12919781;23;20907;-91
2023/07/21 23:54:33;;;;;;;2.40;2.00;;;;;;;;;;12903765;23;20764;-92
2023/07/21 23:59:36;;;;;;;2.60;1.75;;;;;;;;;;12900322;23;20368;-93
